Time;durP1;ratioP1;P1;durP2;ratioP2;P2;SDS_P1;SDS_P2;PMS_P1;PMS_P2;Temp;Humidity;BMP_temperature;BMP_pressure;BME280_temperature;BME280_humidity;BME280_pressure;Samples;Min_cycle;Max_cycle;Signal;HPM_P1;HPM_P2
2022/07/07 00:01:42;;;;;;;5.78;0.95;;;;;;;27.24;36.55;101879.38;5054565;28;20044;-66
2022/07/07 00:04:08;;;;;;;2.28;1.08;;;;;;;27.22;36.24;101881.50;5054599;28;20033;-66
2022/07/07 00:06:35;;;;;;;0.80;0.80;;;;;;;27.19;36.41;101878.09;5055916;28;20044;-66
2022/07/07 00:09:01;;;;;;;2.20;0.90;;;;;;;27.19;37.01;101878.09;5054554;28;20021;-67
2022/07/07 00:11:26;;;;;;;5.97;0.95;;;;;;;27.17;36.36;101880.22;5054448;28;20061;-67
2022/07/07 00:13:52;;;;;;;5.00;0.90;;;;;;;27.16;36.75;101873.03;5037762;28;20060;-66
2022/07/07 00:16:18;;;;;;;5.57;0.95;;;;;;;27.16;36.48;101869.44;5054384;28;20104;-66
2022/07/07 00:18:44;;;;;;;9.25;1.60;;;;;;;27.15;37.06;101862.25;5053893;28;20443;-66
2022/07/07 00:21:10;;;;;;;1.50;0.98;;;;;;;27.16;37.00;101867.53;5037803;28;20095;-66
2022/07/07 00:23:35;;;;;;;4.60;1.17;;;;;;;27.17;36.79;101858.22;5054299;28;20028;-66
2022/07/07 00:26:00;;;;;;;1.95;1.08;;;;;;;27.14;36.89;101858.66;5055613;28;20032;-66
2022/07/07 00:28:26;;;;;;;2.55;1.08;;;;;;;27.18;37.33;101864.56;5055398;28;20021;-66
2022/07/07 00:30:51;;;;;;;1.63;1.02;;;;;;;27.13;37.18;101862.47;5037391;28;20029;-66
2022/07/07 00:33:17;;;;;;;2.85;0.80;;;;;;;27.13;37.03;101856.13;5055337;28;20033;-66
2022/07/07 00:35:42;;;;;;;3.03;1.00;;;;;;;27.13;37.26;101845.97;5037342;28;20087;-66
2022/07/07 00:38:08;;;;;;;2.05;0.90;;;;;;;27.11;37.25;101842.56;5053989;28;20047;-66
2022/07/07 00:40:34;;;;;;;2.92;1.10;;;;;;;27.06;37.51;101834.09;5053874;28;20028;-66
2022/07/07 00:42:59;;;;;;;3.28;1.33;;;;;;;27.08;37.57;101826.47;5037596;28;20099;-67
2022/07/07 00:45:25;;;;;;;4.10;1.50;;;;;;;27.04;37.59;101818.88;5053756;28;20029;-67
2022/07/07 00:47:52;;;;;;;2.22;1.60;;;;;;;27.03;37.62;101823.53;5055082;28;20032;-66
2022/07/07 00:50:18;;;;;;;2.28;1.58;;;;;;;26.99;37.56;101811.28;5037214;28;20029;-66
2022/07/07 00:52:45;;;;;;;2.58;1.48;;;;;;;26.98;37.86;101804.06;5020519;28;20036;-67
2022/07/07 00:55:10;;;;;;;4.28;2.10;;;;;;;26.96;37.69;101795.19;5037198;28;20082;-65
2022/07/07 00:57:36;;;;;;;3.38;1.65;;;;;;;26.95;37.96;101793.50;5053528;28;20123;-65
2022/07/07 01:00:06;;;;;;;5.35;1.50;;;;;;;26.88;37.69;101789.91;5053750;28;20036;-66
2022/07/07 01:02:31;;;;;;;4.78;2.45;;;;;;;26.90;37.68;101792.44;5053481;28;20104;-66
2022/07/07 01:04:59;;;;;;;5.28;2.10;;;;;;;26.87;37.37;101790.09;5053512;28;20592;-66
2022/07/07 01:07:25;;;;;;;3.42;1.98;;;;;;;26.85;37.93;101786.72;5053387;28;20394;-66
2022/07/07 01:09:50;;;;;;;5.78;1.75;;;;;;;26.80;37.73;101784.59;5053198;28;20021;-66
2022/07/07 01:12:15;;;;;;;4.32;2.00;;;;;;;26.83;38.48;101789.69;5054949;28;20043;-67
2022/07/07 01:14:41;;;;;;;7.28;1.52;;;;;;;26.80;38.17;101784.59;5053370;28;20478;-67
2022/07/07 01:17:06;;;;;;;3.60;1.50;;;;;;;26.79;37.91;101780.19;5054451;28;20478;-65
2022/07/07 01:19:32;;;;;;;4.13;1.83;;;;;;;26.75;38.41;101769.75;5036215;28;20053;-66
2022/07/07 01:22:14;;;;;;;2.65;1.45;;;;;;;26.75;38.09;101767.88;5036462;28;20391;-65
2022/07/07 01:24:41;;;;;;;3.70;1.92;;;;;;;26.76;38.25;101761.31;5053213;28;20029;-66
2022/07/07 01:27:14;;;;;;;3.33;1.55;;;;;;;26.75;38.55;101765.13;5053079;28;20505;-66
2022/07/07 01:29:42;;;;;;;2.00;1.90;;;;;;;26.70;38.91;101761.31;5037359;28;20056;-66
2022/07/07 01:32:08;;;;;;;4.57;1.70;;;;;;;26.70;38.56;101762.16;5052941;28;20112;-66
2022/07/07 01:34:38;;;;;;;3.60;1.88;;;;;;;26.72;38.85;101760.03;5052965;28;20482;-67
2022/07/07 01:37:04;;;;;;;1.88;1.50;;;;;;;26.69;38.21;101763.22;5052921;28;20029;-66
2022/07/07 01:39:29;;;;;;;1.55;1.45;;;;;;;26.70;38.35;101762.16;5019644;28;20461;-66
2022/07/07 01:41:55;;;;;;;2.78;1.30;;;;;;;26.67;38.66;101756.22;5052845;28;20049;-66
2022/07/07 01:44:20;;;;;;;3.42;1.77;;;;;;;26.68;38.92;101758.78;5052779;28;20033;-67
2022/07/07 01:46:45;;;;;;;3.30;1.40;;;;;;;26.66;38.93;101762.81;5052633;28;20108;-66
2022/07/07 01:49:11;;;;;;;3.67;1.70;;;;;;;26.65;38.88;101764.72;5052519;28;20028;-66
2022/07/07 01:51:37;;;;;;;5.78;1.70;;;;;;;26.66;38.93;101771.06;5052640;28;20107;-67
2022/07/07 01:54:02;;;;;;;5.07;1.65;;;;;;;26.63;38.94;101774.22;5052670;28;20029;-67
2022/07/07 01:56:27;;;;;;;1.85;1.02;;;;;;;26.61;38.70;101760.69;5052584;28;20024;-66
2022/07/07 01:58:53;;;;;;;11.75;1.92;;;;;;;26.62;38.88;101759.63;5019394;28;20367;-66
2022/07/07 02:01:18;;;;;;;5.43;1.40;;;;;;;26.63;38.79;101750.34;5052477;28;20029;-66
2022/07/07 02:03:44;;;;;;;1.27;1.08;;;;;;;26.64;38.56;101754.75;5052481;28;20025;-66
2022/07/07 02:06:09;;;;;;;1.90;1.33;;;;;;;26.67;38.91;101748.84;5052717;28;20029;-67
2022/07/07 02:08:34;;;;;;;2.08;1.15;;;;;;;26.64;39.17;101752.00;5052287;28;20025;-67
2022/07/07 02:11:12;;;;;;;2.22;1.10;;;;;;;26.60;39.16;101746.09;5052347;28;20090;-67
2022/07/07 02:13:38;;;;;;;3.95;1.30;;;;;;;26.60;39.38;101742.50;5037357;28;20028;-67
2022/07/07 02:16:04;;;;;;;1.33;1.08;;;;;;;26.59;39.06;101741.66;5035535;28;20039;-66
2022/07/07 02:18:33;;;;;;;1.10;1.00;;;;;;;26.60;39.27;101739.75;5035347;28;20052;-67
2022/07/07 02:20:58;;;;;;;3.05;1.23;;;;;;;26.63;39.36;101748.41;5034804;28;20036;-66
2022/07/07 02:23:24;;;;;;;4.93;1.42;;;;;;;26.64;39.29;101752.00;5035311;28;20035;-67
2022/07/07 02:25:49;;;;;;;1.63;0.88;;;;;;;26.63;39.01;101756.66;5053258;28;20112;-66
2022/07/07 02:28:14;;;;;;;1.58;1.20;;;;;;;26.64;39.64;101752.00;5035389;28;20025;-67
2022/07/07 02:30:40;;;;;;;5.20;1.33;;;;;;;26.62;39.58;101740.38;5053098;28;20033;-66
2022/07/07 02:33:06;;;;;;;9.75;1.52;;;;;;;26.60;39.61;101745.25;5035421;28;20467;-66
2022/07/07 02:35:32;;;;;;;2.05;0.98;;;;;;;26.58;39.73;101747.34;5035590;28;20124;-67
2022/07/07 02:37:57;;;;;;;5.13;1.20;;;;;;;26.60;39.37;101742.50;5035262;28;20119;-66
2022/07/07 02:40:23;;;;;;;2.03;0.80;;;;;;;26.56;39.71;101731.09;5035421;28;20029;-66
2022/07/07 02:42:48;;;;;;;3.22;1.20;;;;;;;26.58;39.63;101739.09;5018766;28;20025;-67
2022/07/07 02:45:13;;;;;;;1.65;1.00;;;;;;;26.60;39.71;101740.59;5051859;28;20035;-65
2022/07/07 02:47:39;;;;;;;1.23;0.80;;;;;;;26.60;39.63;101742.50;5053028;28;20059;-66
2022/07/07 02:50:04;;;;;;;1.23;0.80;;;;;;;26.58;39.64;101739.09;5051720;28;20060;-67
2022/07/07 02:52:30;;;;;;;0.95;0.88;;;;;;;26.57;39.93;101746.53;5052943;28;20021;-67
2022/07/07 02:54:55;;;;;;;2.50;1.30;;;;;;;26.57;39.05;101751.19;5053119;28;20032;-67
2022/07/07 02:57:21;;;;;;;1.33;0.90;;;;;;;26.57;40.10;101734.69;5051824;28;20029;-66
2022/07/07 02:59:46;;;;;;;1.40;1.10;;;;;;;26.57;40.49;101730.03;5035111;28;20036;-66
2022/07/07 03:02:11;;;;;;;24.92;1.42;;;;;;;26.58;40.03;101730.84;5051691;28;20120;-67
2022/07/07 03:04:37;;;;;;;2.55;0.77;;;;;;;26.54;40.28;101733.22;5035036;28;20060;-66
2022/07/07 03:07:02;;;;;;;2.20;0.93;;;;;;;26.53;40.37;101744.41;5018678;28;20032;-67
2022/07/07 03:09:27;;;;;;;2.08;1.08;;;;;;;26.54;40.51;101738.72;5051600;28;20036;-66
2022/07/07 03:11:53;;;;;;;0.70;0.70;;;;;;;26.54;40.63;101746.09;5053176;28;20025;-67
2022/07/07 03:14:18;;;;;;;1.10;0.95;;;;;;;26.52;40.54;101735.31;5052788;28;20040;-67
2022/07/07 03:16:44;;;;;;;1.30;1.00;;;;;;;26.54;40.71;101740.59;5052791;28;20040;-66
2022/07/07 03:19:09;;;;;;;3.53;0.70;;;;;;;26.54;40.41;101751.59;5034713;28;20110;-67
2022/07/07 03:21:34;;;;;;;4.70;1.63;;;;;;;26.51;40.51;101747.38;5052745;28;20028;-66
2022/07/07 03:24:00;;;;;;;1.17;0.93;;;;;;;26.47;40.68;101737.00;5034997;28;20497;-67
2022/07/07 03:26:25;;;;;;;3.90;1.05;;;;;;;26.45;40.59;101741.88;5051592;28;20107;-67
2022/07/07 03:28:50;;;;;;;1.70;1.02;;;;;;;26.46;40.94;101746.31;5052633;28;20038;-66
2022/07/07 03:31:16;;;;;;;1.10;0.68;;;;;;;26.46;40.52;101754.56;5051414;28;20112;-67
2022/07/07 03:33:41;;;;;;;2.63;1.90;;;;;;;26.43;40.69;101746.72;5056304;28;20032;-67
2022/07/07 03:36:07;;;;;;;4.72;1.08;;;;;;;26.42;40.70;101736.78;5038892;28;20122;-66
2022/07/07 03:38:33;;;;;;;1.80;1.70;;;;;;;26.42;40.78;101732.16;5038712;28;20040;-67
2022/07/07 03:40:58;;;;;;;3.47;1.23;;;;;;;26.43;40.92;101733.00;5056209;28;20025;-66
2022/07/07 03:43:23;;;;;;;2.10;1.42;;;;;;;26.42;40.71;101734.03;5055112;28;20484;-67
2022/07/07 03:45:50;;;;;;;1.63;1.00;;;;;;;26.41;41.15;101726.88;5055057;28;20025;-66
2022/07/07 03:48:16;;;;;;;3.05;1.48;;;;;;;26.38;40.92;101724.53;5022068;28;20078;-66
2022/07/07 03:50:41;;;;;;;3.05;0.90;;;;;;;26.39;40.88;101723.47;5036552;28;20389;-67
2022/07/07 03:53:08;;;;;;;2.60;1.25;;;;;;;26.43;40.82;101725.59;5031451;28;20040;-66
2022/07/07 03:55:33;;;;;;;4.30;1.00;;;;;;;26.43;40.86;101714.59;5034855;28;20029;-66
2022/07/07 03:57:59;;;;;;;3.17;1.10;;;;;;;26.45;40.88;101717.13;5018285;28;20036;-65
2022/07/07 04:00:24;;;;;;;4.90;0.98;;;;;;;26.43;41.23;101713.75;5034908;28;20033;-66
2022/07/07 04:02:49;;;;;;;3.78;1.20;;;;;;;26.41;40.99;101707.63;5034711;28;20479;-66
2022/07/07 04:05:15;;;;;;;1.45;1.00;;;;;;;26.40;40.98;101703.19;5018171;28;20033;-66
2022/07/07 04:07:40;;;;;;;1.92;1.08;;;;;;;26.37;41.03;101698.09;5044821;28;20058;-66
2022/07/07 04:10:06;;;;;;;1.95;1.05;;;;;;;26.34;41.47;101693.88;5038033;28;20048;-66
2022/07/07 04:12:31;;;;;;;1.92;0.80;;;;;;;26.34;41.38;101701.28;5054724;28;20043;-67
2022/07/07 04:14:57;;;;;;;2.22;1.20;;;;;;;26.36;41.28;101705.50;5037756;28;20094;-66
2022/07/07 04:17:22;;;;;;;4.80;1.25;;;;;;;26.34;41.56;101709.53;5041582;28;20021;-67
2022/07/07 04:19:47;;;;;;;5.68;1.77;;;;;;;26.32;41.61;101708.91;5017691;28;20049;-67
2022/07/07 04:22:13;;;;;;;4.63;1.40;;;;;;;26.36;41.64;101710.16;5001598;28;20091;-66
2022/07/07 04:24:38;;;;;;;2.75;1.33;;;;;;;26.35;41.52;101705.72;5035608;28;20376;-67
2022/07/07 04:27:05;;;;;;;1.98;0.80;;;;;;;26.35;41.33;101703.84;5017724;28;20069;-66
2022/07/07 04:29:31;;;;;;;3.88;0.85;;;;;;;26.36;41.45;101707.41;5034256;28;20111;-66
2022/07/07 04:31:56;;;;;;;1.05;0.75;;;;;;;26.35;41.56;101708.47;5028226;28;20057;-67
2022/07/07 04:34:22;;;;;;;3.72;1.45;;;;;;;26.33;41.77;101696.81;5037417;28;20540;-66
2022/07/07 04:36:48;;;;;;;2.80;1.40;;;;;;;26.36;41.77;101712.91;5037454;28;20095;-67
2022/07/07 04:39:13;;;;;;;3.85;1.20;;;;;;;26.34;41.84;101704.03;5037583;28;20041;-67
2022/07/07 04:41:38;;;;;;;1.08;0.98;;;;;;;26.32;41.36;101698.75;5055095;28;20068;-68
2022/07/07 04:44:05;;;;;;;1.75;1.05;;;;;;;26.33;41.83;101694.94;5053263;28;20079;-67
2022/07/07 04:46:30;;;;;;;1.90;1.20;;;;;;;26.34;41.59;101695.78;5037543;28;20376;-67
2022/07/07 04:48:56;;;;;;;2.65;1.23;;;;;;;26.34;41.93;101702.13;5053599;28;20078;-65
2022/07/07 04:51:22;;;;;;;2.67;1.08;;;;;;;26.33;41.78;101699.56;5053518;28;20078;-67
2022/07/07 04:53:47;;;;;;;1.42;1.00;;;;;;;26.28;41.96;101696.63;5036286;28;20025;-66
2022/07/07 04:56:13;;;;;;;5.00;0.98;;;;;;;26.25;42.36;101705.28;5033845;28;20030;-67
2022/07/07 04:58:38;;;;;;;2.30;1.23;;;;;;;26.22;42.61;101713.94;5034732;28;20030;-67
2022/07/07 05:01:04;;;;;;;4.38;1.50;;;;;;;26.21;42.58;101717.75;5034896;28;20052;-67
2022/07/07 05:03:29;;;;;;;3.65;1.55;;;;;;;26.18;42.77;101721.78;5033638;28;20033;-66
2022/07/07 05:05:54;;;;;;;1.67;1.25;;;;;;;26.07;42.68;101727.00;5034858;28;20475;-67
2022/07/07 05:08:20;;;;;;;3.30;1.77;;;;;;;26.00;43.29;101727.84;5034649;28;20029;-66
2022/07/07 05:10:45;;;;;;;1.20;1.10;;;;;;;25.98;42.96;101740.09;5017139;28;20133;-66
2022/07/07 05:13:10;;;;;;;1.60;0.98;;;;;;;25.93;43.83;101737.97;5033373;28;20056;-66
2022/07/07 05:15:36;;;;;;;1.98;1.30;;;;;;;25.89;43.41;101746.81;5034662;28;20026;-66
2022/07/07 05:18:01;;;;;;;2.40;1.33;;;;;;;25.85;43.56;101751.88;5016673;28;20509;-65
2022/07/07 05:20:27;;;;;;;1.60;1.15;;;;;;;25.75;43.54;101748.69;5033237;28;20037;-66
2022/07/07 05:22:52;;;;;;;1.83;0.88;;;;;;;25.75;43.99;101745.94;5033352;28;20025;-67
2022/07/07 05:25:18;;;;;;;2.25;0.85;;;;;;;25.76;43.97;101736.66;5016603;28;20067;-66
2022/07/07 05:27:44;;;;;;;3.13;0.80;;;;;;;25.76;43.13;101735.81;5033305;28;20021;-66
2022/07/07 05:30:11;;;;;;;1.55;0.60;;;;;;;25.77;43.89;101738.31;5017920;28;20018;-65
2022/07/07 05:32:36;;;;;;;1.45;0.68;;;;;;;25.79;43.70;101744.47;5016648;28;20038;-66
2022/07/07 05:35:01;;;;;;;1.60;0.80;;;;;;;25.81;43.82;101742.38;5016468;28;20036;-67
2022/07/07 05:37:27;;;;;;;1.95;0.82;;;;;;;25.82;43.85;101745.97;5032835;28;20025;-66
2022/07/07 05:39:52;;;;;;;1.58;0.80;;;;;;;25.85;43.49;101754.63;5032958;28;20048;-66
2022/07/07 05:42:18;;;;;;;3.45;0.90;;;;;;;25.89;43.73;101755.91;5016471;28;20406;-66
2022/07/07 05:44:44;;;;;;;1.25;0.70;;;;;;;25.95;44.02;101751.47;5032882;28;20025;-65
2022/07/07 05:47:09;;;;;;;1.65;1.05;;;;;;;26.07;43.69;101762.72;5033980;28;20025;-66
2022/07/07 05:49:34;;;;;;;2.15;1.00;;;;;;;26.08;43.91;101767.13;5032729;28;20116;-65
2022/07/07 05:52:00;;;;;;;1.65;0.68;;;;;;;26.39;43.41;101759.19;5016109;28;20037;-66
2022/07/07 05:54:25;;;;;;;2.55;0.75;;;;;;;26.52;43.61;101754.53;5016138;28;20199;-67
2022/07/07 05:56:51;;;;;;;2.10;1.75;;;;;;;26.51;43.80;101757.53;5033061;28;20033;-65
2022/07/07 05:59:16;;;;;;;2.95;1.83;;;;;;;26.49;43.53;101759.63;5033578;28;20029;-66
2022/07/07 06:01:42;;;;;;;3.95;1.23;;;;;;;26.49;43.77;101770.63;5032449;28;20077;-66
2022/07/07 06:04:07;;;;;;;1.52;0.85;;;;;;;26.46;43.55;101782.91;5032426;28;20029;-66
2022/07/07 06:06:33;;;;;;;1.90;1.50;;;;;;;26.46;44.31;101771.06;5032355;28;20087;-65
2022/07/07 06:08:58;;;;;;;0.80;0.80;;;;;;;26.42;43.86;101784.34;5032332;28;20025;-66
2022/07/07 06:11:24;;;;;;;1.05;0.85;;;;;;;26.36;43.87;101789.84;5015726;28;20033;-66
2022/07/07 06:13:49;;;;;;;2.75;0.88;;;;;;;26.28;44.03;101807.38;5039945;28;20025;-66
2022/07/07 06:16:14;;;;;;;3.05;1.10;;;;;;;26.20;44.30;101803.97;5015763;28;20549;-66
2022/07/07 06:18:40;;;;;;;1.48;1.13;;;;;;;26.12;44.58;101806.88;5033250;28;20048;-66
2022/07/07 06:21:05;;;;;;;1.20;1.10;;;;;;;26.10;44.71;101819.97;5032150;28;20471;-66
2022/07/07 06:23:30;;;;;;;4.13;0.80;;;;;;;26.15;44.53;101821.09;5032192;28;20442;-66
2022/07/07 06:25:56;;;;;;;0.85;0.73;;;;;;;26.16;44.59;101808.22;5021833;28;20368;-66
2022/07/07 06:28:21;;;;;;;0.68;0.65;;;;;;;26.12;44.28;101817.88;5034073;28;20036;-66
2022/07/07 06:30:46;;;;;;;1.17;0.68;;;;;;;26.16;44.71;101820.00;5032071;28;20033;-66
2022/07/07 06:33:12;;;;;;;0.55;0.50;;;;;;;26.26;44.49;101825.13;5032107;28;20025;-66
2022/07/07 06:35:37;;;;;;;0.35;0.30;;;;;;;26.27;44.31;101824.91;5032323;28;20033;-66
2022/07/07 06:38:03;;;;;;;1.52;0.40;;;;;;;26.36;44.04;101831.91;5033206;28;20104;-66
2022/07/07 06:40:28;;;;;;;2.35;0.52;;;;;;;26.43;44.21;101826.44;5033202;28;20479;-67
2022/07/07 06:42:53;;;;;;;0.73;0.45;;;;;;;26.40;44.53;101824.09;5031963;28;20061;-66
2022/07/07 06:45:19;;;;;;;0.40;0.40;;;;;;;26.39;44.24;101830.63;5031918;28;20030;-66
2022/07/07 06:47:44;;;;;;;1.63;0.60;;;;;;;26.47;44.18;101839.53;5032068;28;20028;-66
2022/07/07 06:50:10;;;;;;;4.30;0.63;;;;;;;26.52;44.26;101838.94;5033015;28;20027;-67
2022/07/07 06:52:36;;;;;;;2.40;0.68;;;;;;;26.55;43.85;101832.97;5015380;28;20113;-66
2022/07/07 06:55:02;;;;;;;0.40;0.40;;;;;;;26.66;43.74;101842.53;5015443;28;20112;-66
2022/07/07 06:57:28;;;;;;;3.95;0.73;;;;;;;26.79;43.90;101843.44;5015393;28;20021;-66
2022/07/07 06:59:53;;;;;;;1.88;0.47;;;;;;;26.75;43.68;101844.00;5031779;28;20095;-66
2022/07/07 07:02:19;;;;;;;0.40;0.40;;;;;;;26.76;43.98;101843.81;5015321;28;20124;-66
2022/07/07 07:04:46;;;;;;;2.95;0.50;;;;;;;27.08;43.41;101858.66;5015308;28;20026;-66
2022/07/07 07:07:12;;;;;;;0.30;0.30;;;;;;;27.16;42.96;101853.75;5016998;28;20034;-65
2022/07/07 07:09:37;;;;;;;0.77;0.47;;;;;;;27.11;43.08;101859.06;5019161;28;20013;-66
2022/07/07 07:12:03;;;;;;;1.30;0.70;;;;;;;27.08;43.35;101870.50;5002981;28;20069;-66
2022/07/07 07:14:28;;;;;;;1.20;0.60;;;;;;;27.07;43.55;101871.56;5035585;28;20033;-67
2022/07/07 07:16:53;;;;;;;1.00;0.50;;;;;;;27.03;42.92;101867.53;5035713;28;20625;-66
2022/07/07 07:19:19;;;;;;;2.55;0.40;;;;;;;26.99;42.60;101880.03;5018727;28;20042;-66
2022/07/07 07:21:44;;;;;;;0.75;0.30;;;;;;;26.92;42.32;101876.41;5035585;28;20043;-66
2022/07/07 07:24:11;;;;;;;0.10;0.10;;;;;;;26.89;42.30;101871.34;5047521;28;20031;-67
2022/07/07 07:26:37;;;;;;;2.35;0.30;;;;;;;26.86;42.46;101882.75;5055257;28;20041;-66
2022/07/07 07:29:03;;;;;;;2.47;0.20;;;;;;;26.81;42.29;101888.06;5056627;28;20422;-66
2022/07/07 07:31:28;;;;;;;2.17;0.30;;;;;;;26.80;42.37;101878.09;5038724;28;20033;-66
2022/07/07 07:33:53;;;;;;;3.55;0.73;;;;;;;26.78;41.57;101885.72;5038614;28;20080;-66
2022/07/07 07:36:19;;;;;;;1.42;0.25;;;;;;;26.72;42.00;101886.53;5055140;28;20033;-66
2022/07/07 07:38:44;;;;;;;0.98;0.40;;;;;;;26.67;42.08;101883.56;5055113;28;20028;-67
2022/07/07 07:41:11;;;;;;;2.35;0.30;;;;;;;26.75;41.82;101896.25;5054991;28;20033;-67
2022/07/07 07:43:37;;;;;;;1.98;0.40;;;;;;;26.98;41.44;101892.09;5055132;28;20021;-66
2022/07/07 07:46:03;;;;;;;1.73;0.50;;;;;;;27.10;41.35;101906.91;5055036;28;20032;-66
2022/07/07 07:48:28;;;;;;;0.80;0.17;;;;;;;27.62;40.67;101902.44;5038227;28;20390;-66
2022/07/07 07:50:54;;;;;;;1.65;0.50;;;;;;;28.20;39.52;101912.44;5054959;28;20095;-66
2022/07/07 07:53:19;;;;;;;2.22;0.60;;;;;;;28.69;39.61;101914.56;5054792;28;20044;-66
2022/07/07 07:55:44;;;;;;;3.42;1.23;;;;;;;29.18;38.58;101899.97;5056045;28;20368;-66
2022/07/07 07:58:10;;;;;;;3.10;0.40;;;;;;;29.33;38.29;101914.31;5021744;28;20033;-66
2022/07/07 08:00:36;;;;;;;4.63;0.57;;;;;;;29.24;38.80;101912.91;5054748;28;20017;-65
2022/07/07 08:03:01;;;;;;;2.55;0.40;;;;;;;29.00;39.33;101910.97;5054608;28;20079;-66
2022/07/07 08:05:27;;;;;;;3.40;0.45;;;;;;;28.74;38.76;101919.41;5054572;28;20025;-66
2022/07/07 08:07:52;;;;;;;10.00;1.45;;;;;;;28.55;39.50;101912.06;5055774;28;20052;-66
2022/07/07 08:10:18;;;;;;;2.70;0.57;;;;;;;28.41;39.58;101927.00;5054547;28;20123;-67
2022/07/07 08:12:44;;;;;;;1.92;0.52;;;;;;;28.26;38.92;101925.38;5054763;28;20044;-66
2022/07/07 08:15:11;;;;;;;2.53;0.52;;;;;;;28.23;38.82;101939.59;5054519;28;20478;-66
2022/07/07 08:17:36;;;;;;;1.50;0.30;;;;;;;28.36;38.83;101938.69;5038090;28;20033;-66
2022/07/07 08:20:03;;;;;;;1.95;0.20;;;;;;;28.89;37.11;101942.03;5053209;28;20095;-66
2022/07/07 08:22:28;;;;;;;2.03;0.10;;;;;;;29.46;36.75;101938.19;5054313;28;20029;-66
2022/07/07 08:24:54;;;;;;;3.92;0.32;;;;;;;29.77;36.83;101935.31;5055575;28;20487;-66
2022/07/07 08:27:19;;;;;;;0.43;0.30;;;;;;;30.06;36.37;101931.00;5054210;28;20029;-66
2022/07/07 08:29:45;;;;;;;0.88;0.15;;;;;;;30.18;36.30;101931.06;5054309;28;20029;-67
2022/07/07 08:32:11;;;;;;;1.17;0.30;;;;;;;30.58;35.57;101929.50;5054196;28;20035;-67
2022/07/07 08:34:37;;;;;;;1.85;0.57;;;;;;;30.58;35.71;101943.31;5037461;28;20078;-67
2022/07/07 08:37:03;;;;;;;4.22;0.35;;;;;;;30.89;35.36;101939.47;5054124;28;20469;-67
2022/07/07 08:39:28;;;;;;;1.83;0.43;;;;;;;31.36;35.05;101932.97;5055474;28;20086;-67
2022/07/07 08:41:54;;;;;;;2.72;0.40;;;;;;;31.82;34.23;101934.09;5054302;28;20517;-67
2022/07/07 08:44:20;;;;;;;1.00;0.40;;;;;;;32.19;33.84;101929.97;5054047;28;20056;-67
2022/07/07 08:46:45;;;;;;;3.83;0.47;;;;;;;32.61;33.74;101934.16;5055110;28;20024;-67
2022/07/07 08:49:11;;;;;;;1.88;0.30;;;;;;;32.42;33.60;101935.41;5053855;28;20033;-67
2022/07/07 08:51:44;;;;;;;3.00;0.63;;;;;;;32.33;33.50;101942.44;5037484;28;20067;-67
2022/07/07 08:54:10;;;;;;;1.92;0.43;;;;;;;31.94;34.53;101949.59;5055058;28;20033;-67
2022/07/07 08:56:38;;;;;;;4.47;0.55;;;;;;;31.62;34.04;101957.47;5053716;28;20167;-67
2022/07/07 08:59:04;;;;;;;1.15;0.40;;;;;;;31.18;34.52;101966.31;5053630;28;20032;-66
2022/07/07 09:01:30;;;;;;;1.80;0.40;;;;;;;30.70;34.91;101966.38;5053651;28;20060;-66
2022/07/07 09:03:55;;;;;;;1.30;0.43;;;;;;;30.27;35.48;101977.53;5053500;28;20114;-66
2022/07/07 09:06:20;;;;;;;4.10;0.45;;;;;;;29.98;35.56;101975.53;5036806;28;20036;-66
2022/07/07 09:08:46;;;;;;;2.33;0.40;;;;;;;29.71;34.68;101997.00;5053580;28;20025;-66
2022/07/07 09:11:11;;;;;;;1.20;0.40;;;;;;;29.42;35.33;101987.53;5053536;28;20490;-66
2022/07/07 09:13:37;;;;;;;3.25;0.85;;;;;;;29.25;35.45;101996.56;5053630;28;20029;-66
2022/07/07 09:16:05;;;;;;;1.83;0.40;;;;;;;29.15;35.42;102001.69;5053759;28;20031;-66
2022/07/07 09:18:35;;;;;;;2.97;0.65;;;;;;;29.13;35.81;102004.69;5052902;28;20047;-67
2022/07/07 09:21:03;;;;;;;2.22;0.50;;;;;;;29.20;35.20;101997.19;5053105;28;20072;-67
2022/07/07 09:23:29;;;;;;;0.85;0.30;;;;;;;29.33;35.11;101999.91;5036611;28;20021;-66
2022/07/07 09:25:55;;;;;;;6.18;0.60;;;;;;;29.72;34.04;102014.44;5053208;28;20032;-66
2022/07/07 09:28:20;;;;;;;1.33;0.40;;;;;;;30.09;33.79;102005.19;5036559;28;20154;-67
2022/07/07 09:30:47;;;;;;;1.17;0.43;;;;;;;30.29;34.28;102004.97;5053006;28;20048;-69
2022/07/07 09:33:24;;;;;;;0.70;0.55;;;;;;;30.52;34.06;102005.13;5036353;28;20021;-67
2022/07/07 09:38:36;;;;;;;8.27;0.80;;;;;;;31.06;33.49;102002.28;5053144;28;20044;-67
2022/07/07 09:41:08;;;;;;;4.03;0.60;;;;;;;31.28;33.22;102005.34;5036407;28;20098;-67
2022/07/07 09:43:38;;;;;;;2.97;0.73;;;;;;;31.22;33.37;102008.19;5052826;28;20029;-67
2022/07/07 09:46:18;;;;;;;0.73;0.40;;;;;;;31.12;33.79;102017.94;5052893;28;20025;-66
2022/07/07 09:48:48;;;;;;;1.75;0.60;;;;;;;30.87;33.69;102013.59;5053898;28;20029;-66
2022/07/07 09:51:16;;;;;;;2.40;0.70;;;;;;;30.58;34.04;102021.63;5053865;28;20043;-66
2022/07/07 09:54:05;;;;;;;0.75;0.28;;;;;;;30.25;34.82;102032.22;5052531;28;20059;-66
2022/07/07 09:56:45;;;;;;;1.85;0.40;;;;;;;29.91;34.31;102049.38;5052630;28;20024;-66
2022/07/07 09:59:12;;;;;;;2.17;0.70;;;;;;;29.58;35.26;102040.50;5052245;28;20056;-66
2022/07/07 10:01:41;;;;;;;3.63;0.38;;;;;;;29.29;35.91;102040.06;5035835;28;20025;-66
2022/07/07 10:04:08;;;;;;;0.68;0.65;;;;;;;29.23;35.67;102049.22;5052600;28;20017;-66
2022/07/07 10:06:35;;;;;;;3.35;0.30;;;;;;;29.08;35.25;102051.44;5052334;28;20024;-65
2022/07/07 10:09:10;;;;;;;0.50;0.20;;;;;;;29.12;35.41;102055.44;5053562;28;20017;-66
2022/07/07 10:11:41;;;;;;;1.10;0.40;;;;;;;29.21;35.53;102056.00;5052441;28;20029;-66
2022/07/07 10:14:16;;;;;;;1.83;0.45;;;;;;;29.51;35.15;102056.28;5053550;28;20029;-66
2022/07/07 10:16:45;;;;;;;0.22;0.22;;;;;;;30.00;34.56;102059.06;5035680;28;20021;-66
2022/07/07 10:19:12;;;;;;;1.55;0.40;;;;;;;30.44;34.06;102061.59;5051999;28;20065;-66
2022/07/07 10:21:40;;;;;;;2.88;0.35;;;;;;;30.96;33.92;102056.53;5052192;28;20060;-66
2022/07/07 10:24:06;;;;;;;3.35;0.75;;;;;;;31.03;33.50;102057.25;5052140;28;20039;-66
2022/07/07 10:26:39;;;;;;;1.95;0.30;;;;;;;31.13;33.56;102052.84;5052189;28;20107;-66
2022/07/07 10:29:06;;;;;;;3.03;0.47;;;;;;;31.05;34.27;102067.03;5052140;28;20360;-66
2022/07/07 10:31:32;;;;;;;3.60;0.50;;;;;;;30.91;33.95;102064.63;5052116;28;20020;-65
2022/07/07 10:34:11;;;;;;;4.65;0.40;;;;;;;30.66;33.81;102061.13;5052127;28;20099;-66
2022/07/07 10:36:49;;;;;;;3.38;0.50;;;;;;;30.44;34.36;102083.72;5035448;28;20025;-66
2022/07/07 10:39:20;;;;;;;0.60;0.30;;;;;;;30.25;34.14;102070.94;5053157;28;20029;-66
2022/07/07 10:42:15;;;;;;;1.45;0.30;;;;;;;30.11;34.44;102085.97;5051475;28;20021;-66
2022/07/07 10:44:42;;;;;;;0.47;0.43;;;;;;;29.98;34.53;102075.88;5051850;28;20058;-66
2022/07/07 10:47:10;;;;;;;0.40;0.30;;;;;;;30.58;33.81;102088.03;5035408;28;20538;-66
2022/07/07 10:49:41;;;;;;;1.02;0.45;;;;;;;30.71;34.24;102086.19;5053036;28;20021;-66
2022/07/07 10:52:18;;;;;;;1.33;0.52;;;;;;;30.68;33.80;102086.66;5051932;28;20032;-66
2022/07/07 10:54:52;;;;;;;1.13;0.30;;;;;;;30.56;34.25;102094.88;5051984;28;20021;-66
2022/07/07 10:57:27;;;;;;;2.60;0.20;;;;;;;30.42;34.58;102108.03;5035129;28;20493;-66
2022/07/07 10:59:59;;;;;;;3.70;1.58;;;;;;;30.19;34.16;102107.78;5052925;28;20035;-66
2022/07/07 11:02:38;;;;;;;0.80;0.23;;;;;;;29.91;34.56;102112.94;5053027;28;20474;-66
2022/07/07 11:05:27;;;;;;;1.27;0.40;;;;;;;29.56;34.42;102115.31;5051686;28;20422;-65
2022/07/07 11:07:56;;;;;;;1.60;0.30;;;;;;;29.28;35.43;102121.22;5051803;28;20028;-65
2022/07/07 11:10:22;;;;;;;4.22;0.45;;;;;;;29.14;35.58;102115.94;5051450;28;20037;-66
2022/07/07 11:12:52;;;;;;;3.78;0.43;;;;;;;28.98;34.86;102119.22;5018757;28;20032;-66
2022/07/07 11:15:21;;;;;;;1.65;0.30;;;;;;;28.82;36.09;102129.66;5051748;28;20100;-66
2022/07/07 11:17:53;;;;;;;1.92;0.40;;;;;;;28.68;36.18;102121.66;5052822;28;20104;-67
2022/07/07 11:20:32;;;;;;;1.58;0.47;;;;;;;28.62;36.21;102133.50;5051207;28;20052;-66
2022/07/07 11:23:08;;;;;;;3.08;0.63;;;;;;;28.58;36.03;102132.25;5052754;28;20040;-66
2022/07/07 11:25:34;;;;;;;2.75;0.50;;;;;;;28.55;36.45;102132.69;5051575;28;20020;-66